Time;durP1;ratioP1;P1;durP2;ratioP2;P2;SDS_P1;SDS_P2;PMS_P1;PMS_P2;Temp;Humidity;BMP_temperature;BMP_pressure;BME280_temperature;BME280_humidity;BME280_pressure;Samples;Min_cycle;Max_cycle;Signal;HPM_P1;HPM_P2
2023/04/16 00:00:47;;;;;;;2.22;1.67;;;8.70;99.90;;;;;;5062551;28;20481;-48
2023/04/16 00:03:13;;;;;;;2.60;1.00;;;8.70;99.90;;;;;;5071130;28;20028;-48
2023/04/16 00:05:38;;;;;;;8.15;1.15;;;8.60;99.90;;;;;;5071883;28;20336;-44
2023/04/16 00:08:04;;;;;;;4.07;0.93;;;8.60;99.90;;;;;;5067983;28;20028;-42
2023/04/16 00:10:30;;;;;;;1.30;0.82;;;8.60;99.90;;;;;;5073496;28;20024;-44
2023/04/16 00:12:56;;;;;;;5.15;1.73;;;8.60;99.90;;;;;;5072148;28;20385;-45
2023/04/16 00:15:21;;;;;;;3.85;0.98;;;8.60;99.90;;;;;;5070933;28;20036;-45
2023/04/16 00:17:47;;;;;;;9.15;1.15;;;8.60;99.90;;;;;;5070518;28;20082;-46
2023/04/16 00:20:13;;;;;;;7.55;1.17;;;8.60;99.90;;;;;;5064610;28;20037;-47
2023/04/16 00:22:38;;;;;;;3.05;1.27;;;8.70;99.90;;;;;;5068961;28;20559;-44
2023/04/16 00:25:04;;;;;;;3.10;0.90;;;8.70;99.90;;;;;;5062057;28;20058;-47
2023/04/16 00:27:30;;;;;;;3.75;1.25;;;8.70;99.90;;;;;;5067499;28;20107;-46
2023/04/16 00:29:56;;;;;;;4.40;1.33;;;8.80;99.90;;;;;;5064448;28;20388;-42
2023/04/16 00:32:21;;;;;;;4.22;1.10;;;8.80;99.90;;;;;;5071970;28;20036;-40
2023/04/16 00:34:47;;;;;;;3.45;0.90;;;8.80;99.90;;;;;;5072450;28;20481;-40
2023/04/16 00:37:12;;;;;;;4.57;1.10;;;8.70;99.90;;;;;;5071052;28;20020;-40
2023/04/16 00:39:38;;;;;;;2.22;1.13;;;8.60;99.90;;;;;;5072293;28;20032;-38
2023/04/16 00:42:04;;;;;;;2.20;1.48;;;8.70;99.90;;;;;;5070364;28;20024;-34
2023/04/16 00:44:30;;;;;;;6.93;1.45;;;8.70;99.90;;;;;;5071804;28;20025;-33
2023/04/16 00:46:56;;;;;;;3.50;1.10;;;8.70;99.90;;;;;;5070521;28;20021;-36
2023/04/16 00:49:23;;;;;;;7.45;0.88;;;8.70;99.90;;;;;;5073081;28;20052;-36
2023/04/16 00:51:49;;;;;;;6.30;1.02;;;8.70;99.90;;;;;;5070125;28;20111;-37
2023/04/16 00:54:15;;;;;;;2.05;1.05;;;8.70;99.90;;;;;;5071372;28;20469;-39
2023/04/16 00:56:41;;;;;;;2.28;1.52;;;8.70;99.90;;;;;;5070833;28;20077;-38
2023/04/16 00:59:07;;;;;;;1.50;1.10;;;8.70;99.90;;;;;;5070853;28;20038;-38
2023/04/16 01:01:33;;;;;;;1.88;1.20;;;8.70;99.90;;;;;;5072631;28;20040;-38
2023/04/16 01:03:59;;;;;;;3.03;1.95;;;8.80;99.90;;;;;;5062825;28;20037;-38
2023/04/16 01:06:25;;;;;;;5.30;1.67;;;8.80;99.90;;;;;;5069526;28;20016;-37
2023/04/16 01:08:51;;;;;;;4.18;1.98;;;8.80;99.90;;;;;;5071026;28;20537;-37
2023/04/16 01:11:17;;;;;;;5.97;1.25;;;8.80;99.90;;;;;;5072000;28;20469;-36
2023/04/16 01:13:42;;;;;;;6.20;2.03;;;8.80;99.90;;;;;;5071201;28;20031;-37
2023/04/16 01:16:10;;;;;;;4.60;1.63;;;8.90;99.90;;;;;;5070390;28;20440;-35
2023/04/16 01:18:36;;;;;;;4.30;2.17;;;8.90;99.90;;;;;;5071132;28;20111;-42
2023/04/16 01:21:03;;;;;;;3.72;1.60;;;8.90;99.90;;;;;;5066278;28;20505;-35
2023/04/16 01:23:29;;;;;;;5.85;2.03;;;8.90;99.90;;;;;;5068790;28;20021;-36
2023/04/16 01:25:54;;;;;;;6.28;2.53;;;8.90;99.90;;;;;;5066312;28;20480;-36
2023/04/16 01:28:20;;;;;;;4.72;2.00;;;8.90;99.90;;;;;;5072724;28;20020;-39
2023/04/16 01:30:46;;;;;;;7.82;2.10;;;8.80;99.90;;;;;;5071719;28;20708;-38
2023/04/16 01:33:13;;;;;;;2.90;2.33;;;8.80;99.90;;;;;;5056091;28;20078;-39
2023/04/16 01:35:40;;;;;;;5.80;2.22;;;8.80;99.90;;;;;;5061263;28;20444;-34
2023/04/16 01:38:07;;;;;;;11.07;2.38;;;8.80;99.90;;;;;;5063852;28;20032;-39
2023/04/16 01:40:33;;;;;;;8.32;2.28;;;8.80;99.90;;;;;;5064401;28;20095;-38
2023/04/16 01:42:59;;;;;;;6.32;2.08;;;8.80;99.90;;;;;;5065833;28;20029;-37
2023/04/16 01:45:24;;;;;;;9.13;2.83;;;8.80;99.90;;;;;;5067080;28;20017;-40
2023/04/16 01:47:51;;;;;;;6.03;2.55;;;8.80;99.90;;;;;;5068162;28;20055;-36
2023/04/16 01:50:18;;;;;;;11.05;2.85;;;8.80;99.90;;;;;;5070102;28;20081;-37
2023/04/16 01:52:44;;;;;;;5.82;3.03;;;8.80;99.90;;;;;;5071655;28;20036;-40
2023/04/16 01:55:10;;;;;;;10.02;3.20;;;8.80;99.90;;;;;;5059072;28;20385;-37
2023/04/16 01:57:36;;;;;;;12.00;2.58;;;8.90;99.90;;;;;;5055527;28;20025;-40
2023/04/16 02:00:02;;;;;;;4.18;2.00;;;8.90;99.90;;;;;;5069962;28;20028;-38
2023/04/16 02:02:29;;;;;;;13.77;3.70;;;8.90;99.90;;;;;;5067639;28;20495;-36
2023/04/16 02:04:57;;;;;;;7.20;2.35;;;8.80;99.90;;;;;;5051957;28;20045;-38
2023/04/16 02:07:24;;;;;;;4.63;2.42;;;8.80;99.90;;;;;;5052332;28;20025;-36
2023/04/16 02:09:50;;;;;;;9.07;2.92;;;8.80;99.90;;;;;;5052282;28;20564;-34
2023/04/16 02:12:16;;;;;;;8.95;3.40;;;8.90;99.90;;;;;;5059391;28;20024;-42
2023/04/16 02:14:42;;;;;;;3.63;2.22;;;8.90;99.90;;;;;;5070525;28;20490;-39
2023/04/16 02:17:07;;;;;;;9.13;2.75;;;8.90;99.90;;;;;;5072285;28;20077;-39
2023/04/16 02:19:33;;;;;;;4.10;2.00;;;8.90;99.90;;;;;;5058456;28;20036;-36
2023/04/16 02:22:00;;;;;;;7.93;2.72;;;8.90;99.90;;;;;;5055669;28;20056;-34
2023/04/16 02:24:27;;;;;;;6.78;3.30;;;8.90;99.90;;;;;;5055218;28;20466;-42
2023/04/16 02:26:53;;;;;;;4.55;2.03;;;8.80;99.90;;;;;;5072090;28;20033;-38
2023/04/16 02:29:19;;;;;;;3.80;2.35;;;8.90;99.90;;;;;;5074365;28;20029;-37
2023/04/16 02:31:45;;;;;;;8.68;2.28;;;8.90;99.90;;;;;;5061964;28;20028;-36
2023/04/16 02:34:11;;;;;;;8.25;3.17;;;8.90;99.90;;;;;;5067117;28;20354;-40
2023/04/16 02:36:37;;;;;;;6.55;2.60;;;8.90;99.90;;;;;;5061058;28;20516;-39
2023/04/16 02:39:03;;;;;;;7.05;2.90;;;8.80;99.90;;;;;;5055659;28;20029;-37
2023/04/16 02:41:29;;;;;;;5.15;2.58;;;8.90;99.90;;;;;;5069645;28;20025;-38
2023/04/16 02:43:55;;;;;;;8.40;2.42;;;8.80;99.90;;;;;;5075291;28;20027;-36
2023/04/16 02:46:21;;;;;;;9.75;2.67;;;8.90;99.90;;;;;;5067869;28;20031;-37
2023/04/16 02:48:46;;;;;;;3.72;2.60;;;8.90;99.90;;;;;;5073988;28;20036;-38
2023/04/16 02:51:12;;;;;;;6.82;2.70;;;8.80;99.90;;;;;;5058868;28;20029;-35
2023/04/16 02:53:38;;;;;;;5.43;2.72;;;8.80;99.90;;;;;;5060069;28;20025;-37
2023/04/16 02:56:04;;;;;;;9.73;2.85;;;8.70;99.90;;;;;;5064406;28;20025;-35
2023/04/16 02:58:30;;;;;;;6.32;2.60;;;8.70;99.90;;;;;;5071841;28;20461;-38
2023/04/16 03:00:55;;;;;;;8.18;2.75;;;8.80;99.90;;;;;;5066380;28;20032;-36
2023/04/16 03:03:21;;;;;;;8.60;2.88;;;8.80;99.90;;;;;;5072443;28;20032;-39
2023/04/16 03:05:47;;;;;;;15.27;2.63;;;8.70;99.90;;;;;;5073763;28;20050;-39
2023/04/16 03:08:13;;;;;;;7.60;3.13;;;8.70;99.90;;;;;;5074843;28;20059;-36
2023/04/16 03:10:40;;;;;;;8.50;3.20;;;8.60;99.90;;;;;;5062235;28;20505;-37
2023/04/16 03:13:06;;;;;;;5.85;2.47;;;8.70;99.90;;;;;;5054966;28;20497;-38
2023/04/16 03:15:31;;;;;;;10.27;2.70;;;8.70;99.90;;;;;;5072293;28;20032;-37
2023/04/16 03:17:57;;;;;;;10.02;2.92;;;8.70;99.90;;;;;;5054737;28;20056;-38
2023/04/16 03:20:23;;;;;;;16.17;2.88;;;8.70;99.90;;;;;;5071699;28;20063;-36
2023/04/16 03:22:51;;;;;;;10.00;2.70;;;8.70;99.90;;;;;;5074658;28;20032;-36
2023/04/16 03:25:17;;;;;;;5.72;2.90;;;8.70;99.90;;;;;;5056451;28;20370;-37
2023/04/16 03:27:42;;;;;;;8.77;2.78;;;8.70;99.90;;;;;;5054712;28;20496;-36
2023/04/16 03:30:11;;;;;;;6.60;2.92;;;8.70;99.90;;;;;;5056034;28;20155;-35
2023/04/16 03:32:37;;;;;;;8.60;3.70;;;8.70;99.90;;;;;;5073835;28;20721;-37
2023/04/16 03:35:03;;;;;;;10.45;3.50;;;8.70;99.90;;;;;;5073282;28;20024;-35
2023/04/16 03:37:29;;;;;;;10.65;3.10;;;8.70;99.90;;;;;;5074413;28;20028;-39
2023/04/16 03:39:55;;;;;;;9.60;4.03;;;8.70;99.90;;;;;;5073263;28;20035;-37
2023/04/16 03:42:20;;;;;;;9.30;4.25;;;8.70;99.90;;;;;;5074126;28;20033;-35
2023/04/16 03:44:46;;;;;;;14.63;3.95;;;8.70;99.90;;;;;;5074087;28;20091;-36
2023/04/16 03:47:12;;;;;;;7.75;3.33;;;8.70;99.90;;;;;;5058902;28;20083;-38
2023/04/16 03:49:37;;;;;;;12.60;4.18;;;8.70;99.90;;;;;;5064030;28;20389;-40
2023/04/16 03:52:03;;;;;;;6.00;4.20;;;8.70;99.90;;;;;;5072451;28;20397;-34
2023/04/16 03:54:29;;;;;;;10.52;4.18;;;8.70;99.90;;;;;;5073719;28;20534;-38
2023/04/16 03:56:55;;;;;;;10.07;4.25;;;8.60;99.90;;;;;;5067341;28;20098;-38
2023/04/16 03:59:21;;;;;;;12.52;4.82;;;8.60;99.90;;;;;;5054084;28;20056;-36
2023/04/16 04:01:47;;;;;;;13.52;4.85;;;8.60;99.90;;;;;;5060526;28;20032;-35
2023/04/16 04:04:12;;;;;;;7.30;4.53;;;8.60;99.90;;;;;;5072376;28;20082;-38
2023/04/16 04:06:38;;;;;;;11.93;5.68;;;8.60;99.90;;;;;;5073312;28;20120;-38
2023/04/16 04:09:04;;;;;;;11.02;5.50;;;8.60;99.90;;;;;;5073911;28;20394;-40
2023/04/16 04:11:29;;;;;;;10.38;4.57;;;8.50;99.90;;;;;;5072837;28;20024;-35
2023/04/16 04:13:55;;;;;;;18.63;5.97;;;8.60;99.90;;;;;;5073634;28;20496;-40
2023/04/16 04:16:21;;;;;;;10.60;4.70;;;8.60;99.90;;;;;;5068876;28;20033;-35
2023/04/16 04:18:46;;;;;;;14.18;4.70;;;8.60;99.90;;;;;;5071380;28;20408;-42
2023/04/16 04:21:12;;;;;;;13.77;6.07;;;8.60;99.90;;;;;;5073528;28;20043;-40
2023/04/16 04:23:38;;;;;;;23.33;6.20;;;8.60;99.90;;;;;;5073471;28;20119;-38
2023/04/16 04:26:04;;;;;;;19.58;5.30;;;8.60;99.90;;;;;;5072100;28;20342;-39
2023/04/16 04:28:33;;;;;;;25.77;5.95;;;8.60;99.90;;;;;;5073078;28;20029;-39
2023/04/16 04:31:00;;;;;;;14.38;5.38;;;8.60;99.90;;;;;;5072478;28;20540;-39
2023/04/16 04:33:26;;;;;;;18.25;5.82;;;8.60;99.90;;;;;;5069916;28;20415;-38
2023/04/16 04:35:52;;;;;;;13.00;4.78;;;8.60;99.90;;;;;;5073559;28;20033;-36
2023/04/16 04:38:20;;;;;;;8.13;4.50;;;8.60;99.90;;;;;;5073099;28;20037;-38
2023/04/16 04:40:45;;;;;;;13.52;5.60;;;8.60;99.90;;;;;;5072293;28;20033;-38
2023/04/16 04:43:11;;;;;;;17.27;6.18;;;8.60;99.90;;;;;;5072889;28;20112;-39
2023/04/16 04:45:37;;;;;;;9.13;5.53;;;8.50;99.90;;;;;;5070371;28;20413;-40
2023/04/16 04:48:02;;;;;;;16.30;5.97;;;8.50;99.90;;;;;;5070769;28;20025;-41
2023/04/16 04:50:28;;;;;;;9.52;5.18;;;8.60;99.90;;;;;;5072396;28;20033;-38
2023/04/16 04:52:54;;;;;;;15.25;5.97;;;8.60;99.90;;;;;;5072858;28;20024;-36
2023/04/16 04:55:19;;;;;;;17.02;6.38;;;8.60;99.90;;;;;;5073331;28;20027;-38
2023/04/16 04:57:45;;;;;;;17.73;7.15;;;8.60;99.90;;;;;;5073065;28;20059;-40
2023/04/16 05:00:11;;;;;;;21.50;6.55;;;8.70;99.90;;;;;;5071804;28;20483;-37
2023/04/16 05:02:37;;;;;;;25.95;8.23;;;8.70;99.90;;;;;;5071341;28;20024;-39
2023/04/16 05:05:03;;;;;;;24.98;8.43;;;8.60;99.90;;;;;;5070050;28;20036;-36
2023/04/16 05:07:29;;;;;;;26.60;9.38;;;8.60;99.90;;;;;;5072796;28;20747;-39
2023/04/16 05:09:55;;;;;;;32.95;8.40;;;8.60;99.90;;;;;;5071774;28;20111;-33
2023/04/16 05:12:21;;;;;;;29.40;9.43;;;8.60;99.90;;;;;;5071259;28;20036;-39
2023/04/16 05:14:46;;;;;;;22.17;7.07;;;8.60;99.90;;;;;;5072792;28;20021;-37
2023/04/16 05:17:12;;;;;;;29.48;8.13;;;8.70;99.90;;;;;;5071125;28;20111;-36
2023/04/16 05:19:38;;;;;;;25.33;10.07;;;8.60;99.90;;;;;;5058389;28;20078;-38
2023/04/16 05:22:03;;;;;;;29.25;9.57;;;8.50;99.90;;;;;;5052806;28;20056;-37
2023/04/16 05:24:29;;;;;;;30.27;8.65;;;8.60;99.90;;;;;;5054239;28;20033;-35
2023/04/16 05:26:56;;;;;;;24.33;8.48;;;8.60;99.90;;;;;;5070067;28;20103;-38
2023/04/16 05:29:22;;;;;;;27.40;8.60;;;8.60;99.90;;;;;;5071598;28;20029;-34
2023/04/16 05:31:48;;;;;;;17.05;7.05;;;8.60;99.90;;;;;;5072126;28;20527;-40
2023/04/16 05:34:13;;;;;;;37.70;8.82;;;8.60;99.90;;;;;;5062971;28;20025;-39
2023/04/16 05:36:39;;;;;;;31.38;8.52;;;8.60;99.90;;;;;;5071167;28;20473;-38
2023/04/16 05:39:06;;;;;;;18.88;7.45;;;8.60;99.90;;;;;;5070860;28;20492;-39
2023/04/16 05:41:32;;;;;;;28.17;8.43;;;8.60;99.90;;;;;;5069068;28;20055;-40
2023/04/16 05:43:58;;;;;;;23.05;8.10;;;8.70;99.90;;;;;;5058222;28;20033;-42
2023/04/16 05:46:24;;;;;;;21.05;7.25;;;8.70;99.90;;;;;;5070937;28;20024;-36
2023/04/16 05:48:49;;;;;;;22.30;8.40;;;8.70;99.90;;;;;;5069267;28;20477;-40
2023/04/16 05:51:15;;;;;;;32.83;7.57;;;8.60;99.90;;;;;;5071439;28;20028;-39
2023/04/16 05:53:41;;;;;;;25.13;8.18;;;8.60;99.90;;;;;;5073172;28;20028;-35
2023/04/16 05:56:07;;;;;;;31.25;7.72;;;8.60;99.90;;;;;;5074724;28;20100;-36
2023/04/16 05:58:32;;;;;;;26.38;8.80;;;8.60;99.90;;;;;;5067400;28;20050;-38
2023/04/16 06:00:59;;;;;;;23.08;8.52;;;8.60;99.90;;;;;;5072921;28;20020;-38
2023/04/16 06:03:25;;;;;;;23.97;9.40;;;8.60;99.90;;;;;;5073658;28;20028;-36
2023/04/16 06:05:51;;;;;;;19.85;8.68;;;8.60;99.90;;;;;;5075401;28;20507;-40
2023/04/16 06:08:17;;;;;;;24.52;7.45;;;8.70;99.90;;;;;;5075308;28;20396;-40
2023/04/16 06:10:45;;;;;;;21.00;7.60;;;8.70;99.90;;;;;;5073021;28;20412;-35
2023/04/16 06:13:10;;;;;;;22.92;8.75;;;8.70;99.90;;;;;;5062288;28;20393;-38
2023/04/16 06:15:36;;;;;;;23.40;7.53;;;8.70;99.90;;;;;;5100393;28;20066;-36
2023/04/16 06:18:02;;;;;;;24.83;7.30;;;8.70;99.90;;;;;;5072182;28;20036;-37
2023/04/16 06:20:27;;;;;;;20.38;6.70;;;8.70;99.90;;;;;;5073661;28;20528;-39
2023/04/16 06:22:54;;;;;;;18.98;6.75;;;8.80;99.90;;;;;;5073670;28;20028;-36
2023/04/16 06:25:20;;;;;;;18.30;6.90;;;8.80;99.90;;;;;;5069410;28;20069;-38
2023/04/16 06:27:46;;;;;;;17.85;6.22;;;8.80;99.90;;;;;;5074901;28;20017;-40
2023/04/16 06:30:13;;;;;;;20.50;6.03;;;8.80;99.90;;;;;;5072263;28;20047;-36
2023/04/16 06:32:38;;;;;;;23.92;7.03;;;8.80;99.90;;;;;;5075347;28;20388;-35
2023/04/16 06:35:05;;;;;;;20.40;7.05;;;8.80;99.90;;;;;;5073439;28;20027;-37
2023/04/16 06:37:30;;;;;;;12.77;6.25;;;8.80;99.90;;;;;;5073898;28;20362;-35
2023/04/16 06:39:56;;;;;;;28.00;8.02;;;8.80;99.90;;;;;;5075386;28;20074;-37
2023/04/16 06:42:22;;;;;;;16.38;6.95;;;8.80;99.90;;;;;;5075529;28;20047;-36
2023/04/16 06:44:48;;;;;;;17.38;6.72;;;8.90;99.90;;;;;;5074002;28;20107;-40
2023/04/16 06:47:13;;;;;;;23.42;7.75;;;8.80;99.90;;;;;;5075328;28;20099;-40
2023/04/16 06:49:39;;;;;;;16.10;6.90;;;8.90;99.90;;;;;;5073585;28;20047;-37
2023/04/16 06:52:05;;;;;;;14.98;6.57;;;8.90;99.90;;;;;;5075344;28;20021;-40
2023/04/16 06:54:30;;;;;;;22.65;7.63;;;8.90;99.90;;;;;;5075011;28;20431;-34
2023/04/16 06:56:56;;;;;;;19.83;7.85;;;8.90;99.90;;;;;;5075129;28;20073;-40
2023/04/16 06:59:22;;;;;;;15.45;6.70;;;8.90;99.90;;;;;;5058981;28;20033;-37
2023/04/16 07:01:47;;;;;;;16.63;6.40;;;8.90;99.90;;;;;;5062355;28;20029;-34
2023/04/16 07:04:13;;;;;;;14.63;6.60;;;9.10;99.90;;;;;;5057273;28;20052;-35
2023/04/16 07:06:39;;;;;;;15.18;6.38;;;9.00;99.90;;;;;;5065027;28;20090;-39
2023/04/16 07:09:04;;;;;;;31.15;7.18;;;8.90;99.90;;;;;;5066511;28;20469;-37
2023/04/16 07:11:30;;;;;;;18.00;6.40;;;8.90;99.90;;;;;;5063892;28;20476;-40
2023/04/16 07:13:56;;;;;;;18.15;7.45;;;8.90;99.90;;;;;;5058558;28;20021;-38
2023/04/16 07:16:22;;;;;;;16.98;5.55;;;8.90;99.90;;;;;;5070906;28;20028;-40
2023/04/16 07:18:48;;;;;;;11.98;6.18;;;9.00;99.90;;;;;;5064337;28;20028;-40
2023/04/16 07:21:13;;;;;;;15.00;6.78;;;9.10;99.90;;;;;;5054545;28;20487;-38
2023/04/16 07:23:40;;;;;;;17.70;7.18;;;9.00;99.90;;;;;;5064715;28;20054;-40
2023/04/16 07:26:05;;;;;;;17.23;7.20;;;9.00;99.90;;;;;;5066952;28;20078;-41
2023/04/16 07:28:31;;;;;;;15.48;6.95;;;9.00;99.90;;;;;;5069388;28;20036;-39
2023/04/16 07:30:57;;;;;;;16.15;6.68;;;9.10;99.90;;;;;;5069492;28;20029;-39
2023/04/16 07:33:23;;;;;;;13.93;5.43;;;9.10;99.90;;;;;;5063385;28;20054;-34
2023/04/16 07:35:50;;;;;;;19.80;6.30;;;9.10;99.90;;;;;;5067270;28;20039;-39
2023/04/16 07:38:15;;;;;;;20.50;6.72;;;9.10;99.90;;;;;;5074724;28;20040;-38
2023/04/16 07:40:41;;;;;;;20.35;6.40;;;9.10;99.90;;;;;;5073177;28;20081;-38
2023/04/16 07:43:07;;;;;;;17.83;6.47;;;9.10;99.90;;;;;;5072123;28;20028;-38
2023/04/16 07:45:32;;;;;;;12.90;5.75;;;9.20;99.90;;;;;;5065766;28;20020;-37
2023/04/16 07:47:58;;;;;;;12.27;6.03;;;9.20;99.90;;;;;;5073636;28;20102;-36
2023/04/16 07:50:24;;;;;;;9.02;5.00;;;9.30;99.90;;;;;;5063000;28;20013;-39
2023/04/16 07:52:50;;;;;;;11.18;5.78;;;9.20;99.90;;;;;;5069539;28;20028;-38
2023/04/16 07:55:16;;;;;;;9.45;4.90;;;9.30;99.90;;;;;;5063920;28;20405;-41
2023/04/16 07:57:42;;;;;;;10.13;5.75;;;9.30;99.90;;;;;;5072935;28;20036;-39
2023/04/16 08:00:10;;;;;;;12.95;4.85;;;9.30;99.90;;;;;;5068925;28;20093;-40
2023/04/16 08:02:36;;;;;;;8.18;4.35;;;9.30;99.90;;;;;;5073355;28;20470;-38
2023/04/16 08:05:02;;;;;;;10.38;4.60;;;9.30;99.90;;;;;;5071089;28;20068;-38
2023/04/16 08:07:28;;;;;;;15.40;4.97;;;9.30;99.90;;;;;;5073708;28;20107;-41
2023/04/16 08:09:53;;;;;;;17.67;5.20;;;9.30;99.90;;;;;;5056475;28;20021;-40
2023/04/16 08:12:19;;;;;;;13.43;5.60;;;9.40;99.90;;;;;;5053688;28;20513;-39
2023/04/16 08:14:46;;;;;;;13.18;5.72;;;9.30;99.90;;;;;;5055061;28;20481;-37
2023/04/16 08:17:12;;;;;;;17.88;5.30;;;9.40;99.90;;;;;;5062953;28;20542;-39
2023/04/16 08:19:38;;;;;;;11.10;5.15;;;9.50;99.90;;;;;;5065770;28;20068;-40
2023/04/16 08:22:04;;;;;;;11.73;5.95;;;9.50;99.90;;;;;;5054136;28;20413;-40
2023/04/16 08:24:30;;;;;;;10.10;5.22;;;9.50;99.90;;;;;;5053243;28;20028;-36
2023/04/16 08:26:55;;;;;;;11.32;4.85;;;9.50;99.90;;;;;;5067360;28;20029;-39
2023/04/16 08:29:23;;;;;;;14.40;5.05;;;9.50;99.90;;;;;;5062691;28;20082;-40
2023/04/16 08:31:49;;;;;;;12.98;4.85;;;9.60;99.90;;;;;;5059613;28;20099;-36
2023/04/16 08:34:15;;;;;;;16.23;5.13;;;9.60;99.90;;;;;;5055312;28;20523;-44
2023/04/16 08:36:41;;;;;;;9.25;4.95;;;9.50;99.90;;;;;;5073128;28;20033;-45
2023/04/16 08:39:07;;;;;;;17.88;5.15;;;9.60;99.90;;;;;;5071176;28;20028;-44
2023/04/16 08:41:35;;;;;;;13.55;4.53;;;9.50;99.90;;;;;;5058523;28;20583;-42
2023/04/16 08:44:10;;;;;;;11.45;4.40;;;9.50;99.90;;;;;;5062653;28;20051;-44
2023/04/16 08:46:37;;;;;;;15.95;4.93;;;9.60;99.90;;;;;;5073103;28;20024;-47
2023/04/16 08:49:06;;;;;;;12.45;4.80;;;9.70;99.90;;;;;;5072882;28;20479;-45
2023/04/16 08:51:34;;;;;;;13.43;4.38;;;9.70;99.90;;;;;;5054733;28;20028;-43
2023/04/16 08:54:08;;;;;;;10.50;4.25;;;9.70;99.90;;;;;;5052974;28;20428;-47
2023/04/16 08:56:36;;;;;;;16.65;4.82;;;9.70;99.90;;;;;;5053549;28;20390;-45
2023/04/16 08:59:05;;;;;;;14.95;4.43;;;9.70;99.90;;;;;;5073121;28;20028;-45
2023/04/16 09:01:32;;;;;;;13.23;4.57;;;9.70;99.90;;;;;;5053044;28;20035;-38
2023/04/16 09:04:00;;;;;;;8.57;4.78;;;9.80;99.90;;;;;;5052684;28;20028;-38
2023/04/16 09:06:27;;;;;;;11.05;5.68;;;9.80;99.90;;;;;;5067450;28;20039;-45
2023/04/16 09:08:53;;;;;;;7.63;4.57;;;9.80;99.90;;;;;;5072004;28;20389;-42
2023/04/16 09:11:19;;;;;;;15.02;5.85;;;9.90;99.90;;;;;;5072768;28;20432;-44
2023/04/16 09:13:45;;;;;;;12.90;4.38;;;9.80;99.90;;;;;;5065594;28;20032;-44
2023/04/16 09:16:12;;;;;;;11.70;5.13;;;9.90;99.90;;;;;;5071949;28;20052;-41
2023/04/16 09:18:38;;;;;;;8.43;4.75;;;9.90;99.90;;;;;;5070192;28;20493;-46
2023/04/16 09:21:06;;;;;;;10.90;4.47;;;9.80;99.90;;;;;;5058163;28;20163;-44
2023/04/16 09:23:32;;;;;;;9.80;4.18;;;9.90;99.90;;;;;;5072349;28;20492;-46
2023/04/16 09:25:58;;;;;;;13.70;4.75;;;9.90;99.90;;;;;;5072733;28;20060;-47
2023/04/16 09:28:44;;;;;;;7.55;3.90;;;9.90;99.90;;;;;;5071458;28;20036;-46
2023/04/16 09:31:13;;;;;;;6.18;3.88;;;9.90;99.90;;;;;;5072531;28;20500;-45
2023/04/16 09:33:39;;;;;;;10.40;3.60;;;10.00;99.90;;;;;;5066870;28;20170;-50
2023/04/16 09:36:06;;;;;;;7.20;4.00;;;10.00;99.90;;;;;;5071443;28;20048;-47
2023/04/16 09:38:52;;;;;;;10.95;3.35;;;9.90;99.90;;;;;;5072742;28;20032;-45
2023/04/16 09:41:23;;;;;;;7.32;3.70;;;10.00;99.90;;;;;;5060718;28;20064;-44
2023/04/16 09:43:57;;;;;;;8.93;4.03;;;10.00;99.90;;;;;;5071829;28;20436;-44
2023/04/16 09:46:39;;;;;;;6.80;4.05;;;10.00;99.90;;;;;;5072415;28;20070;-47
2023/04/16 09:49:15;;;;;;;8.63;3.92;;;9.90;99.90;;;;;;5072388;28;20025;-51
2023/04/16 09:51:41;;;;;;;5.95;3.53;;;9.90;99.90;;;;;;5071449;28;20094;-44
2023/04/16 09:54:08;;;;;;;6.45;3.70;;;9.90;99.90;;;;;;5072344;28;20032;-43
2023/04/16 09:56:42;;;;;;;7.13;4.35;;;10.00;99.90;;;;;;5061194;28;20151;-45
2023/04/16 09:59:18;;;;;;;14.98;4.90;;;10.10;99.90;;;;;;5065129;28;20040;-47
2023/04/16 10:01:48;;;;;;;6.85;4.57;;;10.10;99.90;;;;;;5065093;28;20044;-46
2023/04/16 10:04:14;;;;;;;8.98;3.75;;;10.10;99.90;;;;;;5072090;28;20049;-45
2023/04/16 10:06:40;;;;;;;4.63;3.42;;;10.20;99.90;;;;;;5071609;28;20032;-42
2023/04/16 10:09:10;;;;;;;11.05;4.15;;;10.20;99.90;;;;;;5053523;28;20104;-48
2023/04/16 10:11:37;;;;;;;5.63;3.50;;;10.20;99.90;;;;;;5052436;28;20039;-48
2023/04/16 10:14:02;;;;;;;7.60;3.78;;;10.20;99.90;;;;;;5071970;28;20044;-47
2023/04/16 10:16:29;;;;;;;5.53;3.35;;;10.20;99.90;;;;;;5066315;28;20025;-44
2023/04/16 10:18:57;;;;;;;8.13;3.65;;;10.30;99.90;;;;;;5068419;28;20546;-41
2023/04/16 10:21:23;;;;;;;8.68;3.75;;;10.30;99.90;;;;;;5060934;28;20493;-44
2023/04/16 10:23:51;;;;;;;14.68;4.25;;;10.30;99.90;;;;;;5061090;28;20067;-38
2023/04/16 10:26:17;;;;;;;7.35;4.35;;;10.40;99.90;;;;;;5069233;28;20496;-43
2023/04/16 10:28:44;;;;;;;6.07;3.55;;;10.40;99.90;;;;;;5060652;28;20028;-51
2023/04/16 10:31:11;;;;;;;10.55;4.45;;;10.40;99.90;;;;;;5071886;28;20488;-46
2023/04/16 10:33:40;;;;;;;12.32;4.53;;;10.40;99.90;;;;;;5065252;28;20040;-42
2023/04/16 10:36:16;;;;;;;11.90;4.80;;;10.40;99.90;;;;;;5065536;28;20535;-46
2023/04/16 10:38:48;;;;;;;10.25;4.47;;;10.50;99.90;;;;;;5065758;28;20058;-43
2023/04/16 10:41:13;;;;;;;9.95;4.65;;;10.60;99.90;;;;;;5072053;28;20393;-45
2023/04/16 10:43:42;;;;;;;6.57;4.18;;;10.50;99.90;;;;;;5058542;28;20029;-46
2023/04/16 10:46:23;;;;;;;9.07;4.68;;;10.40;99.90;;;;;;5074368;28;20145;-47
2023/04/16 10:48:51;;;;;;;6.47;4.38;;;10.40;99.90;;;;;;5069494;28;20025;-42
2023/04/16 10:51:34;;;;;;;10.40;4.40;;;10.40;99.90;;;;;;5071756;28;20021;-46
2023/04/16 10:54:13;;;;;;;8.40;5.10;;;10.40;99.90;;;;;;5058354;28;20063;-48
2023/04/16 10:56:39;;;;;;;12.43;5.35;;;10.40;99.90;;;;;;5072760;28;20497;-48
2023/04/16 10:59:06;;;;;;;9.20;4.60;;;10.50;99.90;;;;;;5063826;28;20029;-50
2023/04/16 11:01:51;;;;;;;11.98;5.07;;;10.40;99.90;;;;;;5068451;28;20098;-45
2023/04/16 11:04:20;;;;;;;7.10;4.80;;;10.40;99.90;;;;;;5067152;28;20063;-47
2023/04/16 11:07:07;;;;;;;12.13;5.95;;;10.40;99.90;;;;;;5054896;28;20033;-46
2023/04/16 11:09:52;;;;;;;9.80;4.35;;;10.50;99.90;;;;;;5071575;28;20507;-46
2023/04/16 11:12:21;;;;;;;14.70;4.95;;;10.50;99.90;;;;;;5073525;28;20554;-45
2023/04/16 11:14:49;;;;;;;11.23;5.50;;;10.40;99.90;;;;;;5074684;28;20104;-47
2023/04/16 11:17:15;;;;;;;18.75;5.55;;;10.40;99.90;;;;;;5055408;28;20574;-46
2023/04/16 11:19:42;;;;;;;10.70;4.97;;;10.30;99.90;;;;;;5054314;28;20374;-48
2023/04/16 11:22:10;;;;;;;13.85;5.82;;;10.30;99.90;;;;;;5064505;28;20481;-45
2023/04/16 11:24:39;;;;;;;17.55;5.80;;;10.30;99.90;;;;;;5074356;28;20439;-49
2023/04/16 11:27:04;;;;;;;15.93;6.38;;;10.20;99.90;;;;;;5061664;28;20099;-49
2023/04/16 11:29:30;;;;;;;18.95;5.93;;;10.20;99.90;;;;;;5069381;28;20032;-48
2023/04/16 11:31:56;;;;;;;14.85;6.15;;;10.30;99.90;;;;;;5073337;28;20079;-43
2023/04/16 11:34:21;;;;;;;21.30;6.78;;;10.30;99.90;;;;;;5066633;28;20047;-45
2023/04/16 11:36:49;;;;;;;16.45;5.70;;;10.40;99.90;;;;;;5073141;28;20068;-46
2023/04/16 11:39:15;;;;;;;;;;;10.40;99.90;;;;;;5071307;28;21030;-49
2023/04/16 11:41:45;;;;;;;15.20;5.40;;;10.50;99.90;;;;;;5073965;28;19919;-47
2023/04/16 11:44:26;;;;;;;19.30;6.55;;;10.60;99.90;;;;;;5073657;28;20483;-45
2023/04/16 11:46:53;;;;;;;13.57;5.28;;;10.60;99.90;;;;;;5074390;28;20465;-43
2023/04/16 11:49:28;;;;;;;19.55;6.05;;;10.60;99.90;;;;;;5073167;28;20027;-45
2023/04/16 11:51:54;;;;;;;13.30;5.65;;;10.50;99.90;;;;;;5071944;28;20021;-44
2023/04/16 11:54:21;;;;;;;9.52;5.65;;;10.50;99.90;;;;;;5062725;28;20100;-46
2023/04/16 11:56:49;;;;;;;21.77;7.30;;;10.50;99.90;;;;;;5071651;28;20021;-47
2023/04/16 11:59:21;;;;;;;13.80;6.80;;;10.50;99.90;;;;;;5066794;28;20103;-47
2023/04/16 12:01:49;;;;;;;14.63;6.15;;;10.50;99.90;;;;;;5065133;28;20215;-47
2023/04/16 12:04:18;;;;;;;17.95;6.82;;;10.50;99.90;;;;;;5068091;28;20566;-44
2023/04/16 12:07:03;;;;;;;17.30;6.70;;;10.50;99.90;;;;;;5072814;28;20087;-48
2023/04/16 12:09:29;;;;;;;18.70;7.70;;;10.60;99.90;;;;;;5073851;28;20366;-45
2023/04/16 12:11:55;;;;;;;21.08;7.53;;;10.80;99.90;;;;;;5072294;28;20035;-45
2023/04/16 12:14:22;;;;;;;19.45;7.22;;;10.80;99.90;;;;;;5073289;28;20029;-45
2023/04/16 12:16:48;;;;;;;18.00;7.37;;;11.00;99.90;;;;;;5072946;28;20515;-47
2023/04/16 12:19:13;;;;;;;19.38;7.47;;;11.00;99.90;;;;;;5067538;28;20029;-47
2023/04/16 12:21:46;;;;;;;21.92;7.55;;;11.10;99.90;;;;;;5065625;28;20025;-43
2023/04/16 12:24:14;;;;;;;25.10;8.23;;;11.00;99.90;;;;;;5072446;28;20047;-49
2023/04/16 12:26:45;;;;;;;24.40;9.05;;;11.10;99.90;;;;;;5068785;28;20056;-36
2023/04/16 12:29:17;;;;;;;30.67;8.75;;;11.10;99.90;;;;;;5054750;28;20555;-41
2023/04/16 12:31:43;;;;;;;26.92;8.73;;;11.30;99.90;;;;;;5065646;28;20456;-38
2023/04/16 12:34:12;;;;;;;24.52;7.57;;;11.50;99.90;;;;;;5072542;28;20063;-37
2023/04/16 12:36:38;;;;;;;18.73;6.75;;;11.70;99.90;;;;;;5072999;28;20025;-37
2023/04/16 12:39:04;;;;;;;19.30;7.55;;;11.80;99.90;;;;;;5073090;28;20362;-35
2023/04/16 12:41:29;;;;;;;16.60;7.07;;;11.70;99.90;;;;;;5071298;28;20028;-38
2023/04/16 12:44:03;;;;;;;20.70;7.30;;;11.80;99.90;;;;;;5072329;28;20025;-39
2023/04/16 12:46:29;;;;;;;14.77;6.97;;;11.70;99.90;;;;;;5067845;28;20017;-39